createdAt,value
2022-11-10T00:00:24.516Z,0
2022-11-10T00:01:40.803Z,0
2022-11-10T00:02:57.112Z,0
2022-11-10T00:04:13.369Z,0
2022-11-10T00:05:28.716Z,0
2022-11-10T00:06:44.995Z,0
2022-11-10T00:08:01.298Z,0
2022-11-10T00:09:17.580Z,0
2022-11-10T00:10:33.853Z,0
2022-11-10T00:11:50.178Z,0
2022-11-10T00:13:06.437Z,0
2022-11-10T00:14:22.732Z,0
2022-11-10T00:15:39.057Z,0
2022-11-10T00:16:55.322Z,0
2022-11-10T00:18:11.611Z,0
2022-11-10T00:19:27.925Z,0
2022-11-10T00:20:44.208Z,0
2022-11-10T00:21:59.533Z,0
2022-11-10T00:23:15.841Z,0
2022-11-10T00:24:32.103Z,0
2022-11-10T00:25:48.409Z,0
2022-11-10T00:27:04.708Z,0
2022-11-10T00:28:20.996Z,0
2022-11-10T00:29:37.288Z,0
2022-11-10T00:30:53.585Z,0
2022-11-10T00:32:09.853Z,0
2022-11-10T00:33:26.148Z,0
2022-11-10T00:34:42.476Z,0
2022-11-10T00:35:58.736Z,0
2022-11-10T00:37:15.053Z,0
2022-11-10T00:38:30.364Z,0
2022-11-10T00:39:46.654Z,0
2022-11-10T00:41:02.932Z,0
2022-11-10T00:42:19.224Z,0
2022-11-10T00:43:34.569Z,0
2022-11-10T00:44:50.836Z,0
2022-11-10T00:46:07.163Z,0
2022-11-10T00:47:23.439Z,0
2022-11-10T00:48:39.738Z,0
2022-11-10T00:49:56.029Z,0
2022-11-10T00:51:12.317Z,0
2022-11-10T00:52:28.595Z,0
2022-11-10T00:53:44.909Z,0
2022-11-10T00:55:01.204Z,0
2022-11-10T00:56:17.470Z,0
2022-11-10T00:57:33.786Z,0
2022-11-10T00:58:50.081Z,0
2022-11-10T01:00:05.388Z,0
2022-11-10T01:01:21.686Z,0
2022-11-10T01:02:37.978Z,0
2022-11-10T01:03:54.275Z,0
2022-11-10T01:05:10.575Z,0
2022-11-10T01:06:26.858Z,0
2022-11-10T01:07:43.149Z,0
2022-11-10T01:08:59.462Z,0
2022-11-10T01:10:15.713Z,0
2022-11-10T01:11:32.007Z,0
2022-11-10T01:12:48.332Z,0
2022-11-10T01:14:04.629Z,0
2022-11-10T01:15:20.914Z,0
2022-11-10T01:16:36.222Z,0
2022-11-10T01:17:52.512Z,0
2022-11-10T01:19:08.784Z,0
2022-11-10T01:20:25.083Z,0
2022-11-10T01:21:41.367Z,0
2022-11-10T01:22:57.689Z,0
2022-11-10T01:24:13.995Z,0
2022-11-10T01:25:30.276Z,0
2022-11-10T01:26:46.579Z,0
2022-11-10T01:28:02.873Z,0
2022-11-10T01:29:19.169Z,0
2022-11-10T01:30:35.452Z,0
2022-11-10T01:31:51.757Z,0
2022-11-10T01:33:07.026Z,0
2022-11-10T01:34:23.351Z,0
2022-11-10T01:35:39.649Z,0
2022-11-10T01:36:55.935Z,0
2022-11-10T01:38:12.225Z,0
2022-11-10T01:39:28.518Z,0
2022-11-10T01:40:44.814Z,0
2022-11-10T01:42:01.102Z,0
2022-11-10T01:43:17.379Z,0
2022-11-10T01:44:33.697Z,0
2022-11-10T01:45:49.986Z,0
2022-11-10T01:47:06.291Z,0
2022-11-10T01:48:22.552Z,0
2022-11-10T01:49:37.890Z,0
2022-11-10T01:50:54.173Z,0
2022-11-10T01:52:10.445Z,0
2022-11-10T01:53:26.762Z,0
2022-11-10T01:54:43.039Z,0
2022-11-10T01:55:59.326Z,0
2022-11-10T01:57:15.633Z,0
2022-11-10T01:58:31.937Z,0
2022-11-10T01:59:48.217Z,0
2022-11-10T02:01:04.515Z,0
2022-11-10T02:02:20.815Z,0
2022-11-10T02:03:37.108Z,0
2022-11-10T02:04:53.402Z,0
2022-11-10T02:06:08.712Z,0
2022-11-10T02:07:24.984Z,0
2022-11-10T02:08:41.282Z,0
2022-11-10T02:09:57.603Z,0
2022-11-10T02:11:13.886Z,0
2022-11-10T02:12:30.179Z,0
2022-11-10T02:13:46.491Z,0
2022-11-10T02:15:02.783Z,0
2022-11-10T02:16:19.058Z,0
2022-11-10T02:17:35.352Z,0
2022-11-10T02:18:51.645Z,0
2022-11-10T02:20:07.950Z,0
2022-11-10T02:21:24.206Z,0
2022-11-10T02:22:40.499Z,0
2022-11-10T02:23:55.839Z,0
2022-11-10T02:25:12.144Z,0
2022-11-10T02:26:28.427Z,0
2022-11-10T02:27:44.721Z,0
2022-11-10T02:29:01.019Z,0
2022-11-10T02:30:17.000Z,0
2022-11-10T02:31:33.603Z,0
2022-11-10T02:32:49.904Z,0
2022-11-10T02:34:06.158Z,0
2022-11-10T02:35:22.458Z,0
2022-11-10T02:36:38.772Z,0
2022-11-10T02:37:55.037Z,0
2022-11-10T02:39:11.367Z,0
2022-11-10T02:40:26.668Z,0
2022-11-10T02:41:42.971Z,0
2022-11-10T02:42:59.233Z,0
2022-11-10T02:44:15.549Z,0
2022-11-10T02:45:31.819Z,0
2022-11-10T02:46:48.144Z,0
2022-11-10T02:48:04.442Z,0
2022-11-10T02:49:20.720Z,0
2022-11-10T02:50:36.994Z,0
2022-11-10T02:51:53.314Z,0
2022-11-10T02:53:09.610Z,0
2022-11-10T02:54:25.894Z,0
2022-11-10T02:55:42.191Z,0
2022-11-10T02:56:57.514Z,0
2022-11-10T02:58:13.798Z,0
2022-11-10T02:59:30.099Z,0
2022-11-10T03:00:46.370Z,0
2022-11-10T03:02:02.674Z,0
2022-11-10T03:03:18.983Z,0
2022-11-10T03:04:35.263Z,0
2022-11-10T03:05:51.541Z,0
2022-11-10T03:07:07.847Z,0
2022-11-10T03:08:24.156Z,0
2022-11-10T03:09:40.442Z,0
2022-11-10T03:10:56.729Z,0
2022-11-10T03:12:13.003Z,0
2022-11-10T03:13:28.303Z,0
2022-11-10T03:14:44.604Z,0
2022-11-10T03:16:00.931Z,0
2022-11-10T03:17:17.228Z,0
2022-11-10T03:18:33.517Z,0
2022-11-10T03:19:49.798Z,0
2022-11-10T03:21:06.091Z,0
2022-11-10T03:22:22.382Z,0
2022-11-10T03:23:38.652Z,0
2022-11-10T03:24:54.969Z,0
2022-11-10T03:26:11.278Z,0
2022-11-10T03:27:27.557Z,0
2022-11-10T03:28:43.851Z,0
2022-11-10T03:29:59.140Z,0
2022-11-10T03:31:15.458Z,0
2022-11-10T03:32:31.756Z,0
2022-11-10T03:33:48.052Z,0
2022-11-10T03:35:04.346Z,0
2022-11-10T03:36:20.634Z,0
2022-11-10T03:37:36.922Z,0
2022-11-10T03:38:53.188Z,0
2022-11-10T03:40:09.520Z,0
2022-11-10T03:41:25.804Z,0
2022-11-10T03:42:42.100Z,0
2022-11-10T03:43:58.394Z,0
2022-11-10T03:45:14.696Z,0
2022-11-10T03:46:30.005Z,0
2022-11-10T03:47:46.260Z,0
2022-11-10T03:49:02.596Z,0
2022-11-10T03:50:18.882Z,0
2022-11-10T03:51:35.139Z,0
2022-11-10T03:52:51.468Z,0
2022-11-10T03:54:07.729Z,0
2022-11-10T03:55:24.046Z,0
2022-11-10T03:56:40.343Z,0
2022-11-10T03:57:56.631Z,0
2022-11-10T03:59:12.899Z,0
2022-11-10T04:00:29.196Z,0
2022-11-10T04:01:45.500Z,0
2022-11-10T04:03:00.808Z,0
2022-11-10T04:04:17.134Z,0
2022-11-10T04:05:33.384Z,0
2022-11-10T04:06:49.702Z,0
2022-11-10T04:08:05.997Z,0
2022-11-10T04:09:22.292Z,0
2022-11-10T04:10:38.563Z,0
2022-11-10T04:11:54.859Z,0
2022-11-10T04:13:11.160Z,0
2022-11-10T04:14:27.446Z,0
2022-11-10T04:15:43.741Z,0
2022-11-10T04:17:00.035Z,0
2022-11-10T04:18:16.322Z,0
2022-11-10T04:19:31.643Z,0
2022-11-10T04:20:47.933Z,0
2022-11-10T04:22:04.238Z,0
2022-11-10T04:23:20.531Z,0
2022-11-10T04:24:36.805Z,0
2022-11-10T04:25:53.000Z,0
2022-11-10T04:27:09.405Z,0
2022-11-10T04:28:25.690Z,0
2022-11-10T04:29:41.982Z,0
2022-11-10T04:30:58.274Z,0
2022-11-10T04:32:14.577Z,0
2022-11-10T04:33:30.878Z,0
2022-11-10T04:34:47.176Z,0
2022-11-10T04:36:02.470Z,0
2022-11-10T04:37:18.759Z,0
2022-11-10T04:38:35.063Z,0
2022-11-10T04:39:51.346Z,0
2022-11-10T04:41:07.656Z,0
2022-11-10T04:42:23.947Z,0
2022-11-10T04:43:40.234Z,0
2022-11-10T04:44:56.517Z,0
2022-11-10T04:46:12.821Z,0
2022-11-10T04:47:29.116Z,0
2022-11-10T04:48:45.403Z,0
2022-11-10T04:50:01.693Z,0
2022-11-10T04:51:17.990Z,0
2022-11-10T04:52:33.299Z,0
2022-11-10T04:53:49.602Z,0
2022-11-10T04:55:05.897Z,0
2022-11-10T04:56:22.179Z,0
2022-11-10T04:57:38.485Z,0
2022-11-10T04:58:53.792Z,0
2022-11-10T05:00:10.096Z,0
2022-11-10T05:01:26.377Z,0
2022-11-10T05:02:42.686Z,0
2022-11-10T05:03:58.978Z,0
2022-11-10T05:05:15.271Z,0
2022-11-10T05:06:31.547Z,0
2022-11-10T05:07:47.845Z,0
2022-11-10T05:09:04.141Z,0
2022-11-10T05:10:20.431Z,0
2022-11-10T05:11:36.738Z,0
2022-11-10T05:12:53.026Z,0
2022-11-10T05:14:09.318Z,0
2022-11-10T05:15:24.615Z,0
2022-11-10T05:16:40.907Z,0
2022-11-10T05:17:57.218Z,0
2022-11-10T05:19:13.509Z,0
2022-11-10T05:20:29.800Z,0
2022-11-10T05:21:46.098Z,0
2022-11-10T05:23:02.377Z,0
2022-11-10T05:24:18.687Z,0
2022-11-10T05:25:34.965Z,0
2022-11-10T05:26:51.274Z,0
2022-11-10T05:28:07.566Z,0
2022-11-10T05:29:23.860Z,0
2022-11-10T05:30:40.150Z,0
2022-11-10T05:31:55.448Z,0
2022-11-10T05:33:11.759Z,0
2022-11-10T05:34:28.043Z,0
2022-11-10T05:35:44.340Z,0
2022-11-10T05:37:00.641Z,0
2022-11-10T05:38:16.932Z,0
2022-11-10T05:39:33.212Z,0
2022-11-10T05:40:49.517Z,0
2022-11-10T05:42:05.801Z,0
2022-11-10T05:43:22.113Z,0
2022-11-10T05:44:38.399Z,0
2022-11-10T05:45:54.686Z,0
2022-11-10T05:47:10.917Z,0
2022-11-10T05:48:26.183Z,0
2022-11-10T05:49:42.425Z,0
2022-11-10T05:50:58.670Z,0
2022-11-10T05:52:14.898Z,0
2022-11-10T05:53:31.137Z,0
2022-11-10T05:54:47.375Z,0
2022-11-10T05:56:03.625Z,0
2022-11-10T05:57:19.865Z,0
2022-11-10T05:58:36.098Z,0
2022-11-10T05:59:52.333Z,0
2022-11-10T06:01:08.575Z,0
2022-11-10T06:02:24.811Z,0
2022-11-10T06:03:41.052Z,0
2022-11-10T06:04:56.321Z,0
2022-11-10T06:06:12.548Z,0
2022-11-10T06:07:28.788Z,0
2022-11-10T06:08:45.039Z,0
2022-11-10T06:10:01.274Z,0
2022-11-10T06:11:17.504Z,0
2022-11-10T06:12:33.752Z,0
2022-11-10T06:13:49.991Z,0
2022-11-10T06:15:06.229Z,0
2022-11-10T06:16:22.469Z,0
2022-11-10T06:17:38.718Z,0
2022-11-10T06:18:54.940Z,0
2022-11-10T06:20:11.187Z,5
2022-11-10T06:21:26.442Z,5
2022-11-10T06:22:42.674Z,5
2022-11-10T06:23:58.923Z,5
2022-11-10T06:25:15.163Z,5
2022-11-10T06:26:31.402Z,5
2022-11-10T06:27:47.630Z,5
2022-11-10T06:29:03.888Z,11
2022-11-10T06:30:20.118Z,11
2022-11-10T06:31:36.363Z,11
2022-11-10T06:32:52.609Z,11
2022-11-10T06:34:08.844Z,16
2022-11-10T06:35:25.084Z,16
2022-11-10T06:36:41.319Z,16
2022-11-10T06:37:56.570Z,22
2022-11-10T06:39:12.809Z,22
2022-11-10T06:40:29.060Z,22
2022-11-10T06:41:45.283Z,28
2022-11-10T06:43:01.528Z,28
2022-11-10T06:44:17.765Z,33
2022-11-10T06:45:34.026Z,33
2022-11-10T06:46:50.240Z,39
2022-11-10T06:48:06.485Z,39
2022-11-10T06:49:22.731Z,45
2022-11-10T06:50:38.975Z,45
2022-11-10T06:51:55.216Z,50
2022-11-10T06:53:11.449Z,50
2022-11-10T06:54:26.697Z,50
2022-11-10T06:55:42.955Z,56
2022-11-10T06:56:59.189Z,56
2022-11-10T06:58:15.419Z,56
2022-11-10T06:59:31.661Z,61
2022-11-10T07:00:47.895Z,61
2022-11-10T07:02:04.143Z,61
2022-11-10T07:03:20.380Z,67
2022-11-10T07:04:36.620Z,67
2022-11-10T07:05:52.855Z,67
2022-11-10T07:07:09.093Z,73
2022-11-10T07:08:25.332Z,73
2022-11-10T07:09:41.569Z,73
2022-11-10T07:10:56.830Z,78
2022-11-10T07:12:13.072Z,78
2022-11-10T07:13:29.317Z,78
2022-11-10T07:14:45.559Z,84
2022-11-10T07:16:01.790Z,84
2022-11-10T07:17:18.024Z,84
2022-11-10T07:18:34.268Z,90
2022-11-10T07:19:50.514Z,95
2022-11-10T07:21:06.758Z,95
2022-11-10T07:22:22.988Z,95
2022-11-10T07:23:39.233Z,101
2022-11-10T07:24:55.467Z,101
2022-11-10T07:26:11.713Z,101
2022-11-10T07:27:26.974Z,106
2022-11-10T07:28:43.197Z,106
2022-11-10T07:29:59.446Z,106
2022-11-10T07:31:15.692Z,112
2022-11-10T07:32:31.919Z,112
2022-11-10T07:33:48.169Z,112
2022-11-10T07:35:04.406Z,112
2022-11-10T07:36:20.647Z,118
2022-11-10T07:37:36.877Z,118
2022-11-10T07:38:53.111Z,118
2022-11-10T07:40:09.372Z,118
2022-11-10T07:41:25.590Z,123
2022-11-10T07:42:41.835Z,123
2022-11-10T07:43:57.105Z,123
2022-11-10T07:45:13.341Z,123
2022-11-10T07:46:29.576Z,129
2022-11-10T07:47:45.806Z,129
2022-11-10T07:49:02.062Z,129
2022-11-10T07:50:18.297Z,129
2022-11-10T07:51:34.523Z,135
2022-11-10T07:52:50.771Z,135
2022-11-10T07:54:07.016Z,135
2022-11-10T07:55:23.261Z,135
2022-11-10T07:56:39.499Z,135
2022-11-10T07:57:55.722Z,135
2022-11-10T07:59:11.975Z,135
2022-11-10T08:00:27.236Z,140
2022-11-10T08:01:43.468Z,140
2022-11-10T08:02:59.710Z,140
2022-11-10T08:04:15.943Z,140
2022-11-10T08:05:32.175Z,140
2022-11-10T08:06:48.417Z,146
2022-11-10T08:08:04.670Z,146
2022-11-10T08:09:20.915Z,146
2022-11-10T08:10:37.136Z,151
2022-11-10T08:11:53.386Z,151
2022-11-10T08:13:09.622Z,151
2022-11-10T08:14:25.857Z,151
2022-11-10T08:15:42.099Z,157
2022-11-10T08:16:58.340Z,157
2022-11-10T08:18:14.576Z,163
2022-11-10T08:19:30.815Z,163
2022-11-10T08:20:47.064Z,168
2022-11-10T08:22:03.297Z,163
2022-11-10T08:23:19.532Z,168
2022-11-10T08:24:35.783Z,168
2022-11-10T08:25:52.023Z,174
2022-11-10T08:27:08.248Z,180
2022-11-10T08:28:24.492Z,180
2022-11-10T08:29:39.752Z,191
2022-11-10T08:30:55.994Z,196
2022-11-10T08:32:12.233Z,202
2022-11-10T08:33:28.468Z,196
2022-11-10T08:34:44.711Z,196
2022-11-10T08:36:00.946Z,185
2022-11-10T08:37:17.192Z,185
2022-11-10T08:38:33.425Z,191
2022-11-10T08:39:49.662Z,185
2022-11-10T08:41:05.916Z,180
2022-11-10T08:42:22.141Z,174
2022-11-10T08:43:38.389Z,174
2022-11-10T08:44:54.626Z,168
2022-11-10T08:46:09.878Z,163
2022-11-10T08:47:26.121Z,163
2022-11-10T08:48:42.355Z,151
2022-11-10T08:49:58.616Z,151
2022-11-10T08:51:14.840Z,140
2022-11-10T08:52:31.074Z,140
2022-11-10T08:55:03.554Z,140
2022-11-10T08:56:19.787Z,140
2022-11-10T08:57:36.039Z,146
2022-11-10T08:58:52.279Z,157
2022-11-10T09:00:08.518Z,157
2022-11-10T09:01:24.752Z,174
2022-11-10T09:02:40.026Z,180
2022-11-10T09:03:56.242Z,180
2022-11-10T09:05:12.489Z,180
2022-11-10T09:06:28.729Z,174
2022-11-10T09:07:44.973Z,174
2022-11-10T09:09:01.217Z,168
2022-11-10T09:10:17.450Z,163
2022-11-10T09:11:33.691Z,163
2022-11-10T09:12:49.923Z,163
2022-11-10T09:14:05.188Z,168
2022-11-10T09:15:21.435Z,163
2022-11-10T09:16:37.672Z,157
2022-11-10T09:17:53.926Z,151
2022-11-10T09:19:10.144Z,151
2022-11-10T09:20:26.390Z,151
2022-11-10T09:21:42.636Z,157
2022-11-10T09:22:58.868Z,157
2022-11-10T09:24:15.107Z,157
2022-11-10T09:25:31.362Z,151
2022-11-10T09:26:47.597Z,146
2022-11-10T09:28:03.835Z,157
2022-11-10T09:29:20.073Z,163
2022-11-10T09:30:35.317Z,168
2022-11-10T09:31:51.563Z,168
2022-11-10T09:33:07.802Z,174
2022-11-10T09:34:24.039Z,174
2022-11-10T09:35:40.270Z,174
2022-11-10T09:36:56.525Z,180
2022-11-10T09:38:12.773Z,180
2022-11-10T09:39:28.989Z,180
2022-11-10T09:40:45.251Z,180
2022-11-10T09:42:01.476Z,185
2022-11-10T09:43:17.720Z,185
2022-11-10T09:44:33.950Z,191
2022-11-10T09:45:50.206Z,202
2022-11-10T09:47:05.454Z,213
2022-11-10T09:48:21.700Z,219
2022-11-10T09:49:37.939Z,230
2022-11-10T09:50:54.167Z,230
2022-11-10T09:52:10.410Z,241
2022-11-10T09:53:26.661Z,241
2022-11-10T09:54:42.898Z,236
2022-11-10T09:55:59.140Z,225
2022-11-10T09:57:15.376Z,208
2022-11-10T09:58:31.605Z,191
2022-11-10T09:59:47.840Z,180
2022-11-10T10:01:04.096Z,168
2022-11-10T10:02:20.328Z,157
2022-11-10T10:03:35.582Z,146
2022-11-10T10:04:51.826Z,140
2022-11-10T10:06:08.060Z,135
2022-11-10T10:07:24.303Z,135
2022-11-10T10:08:40.548Z,140
2022-11-10T10:09:56.777Z,151
2022-11-10T10:11:13.015Z,157
2022-11-10T10:12:29.252Z,168
2022-11-10T10:13:45.501Z,174
2022-11-10T10:15:01.754Z,174
2022-11-10T10:16:17.977Z,174
2022-11-10T10:17:34.218Z,174
2022-11-10T10:18:50.465Z,174
2022-11-10T10:20:05.717Z,174
2022-11-10T10:21:21.961Z,174
2022-11-10T10:22:38.190Z,174
2022-11-10T10:23:54.426Z,174
2022-11-10T10:25:10.675Z,174
2022-11-10T10:26:26.913Z,168
2022-11-10T10:27:43.144Z,174
2022-11-10T10:28:59.400Z,168
2022-11-10T10:30:15.638Z,168
2022-11-10T10:31:31.884Z,168
2022-11-10T10:32:48.108Z,168
2022-11-10T10:34:04.348Z,168
2022-11-10T10:35:20.604Z,168
2022-11-10T10:36:35.847Z,168
2022-11-10T10:37:52.098Z,168
2022-11-10T10:39:08.329Z,168
2022-11-10T10:40:24.568Z,168
2022-11-10T10:41:40.798Z,168
2022-11-10T10:42:57.033Z,168
2022-11-10T10:44:13.277Z,168
2022-11-10T10:45:29.524Z,168
2022-11-10T10:46:45.765Z,168
2022-11-10T10:48:02.008Z,168
2022-11-10T10:49:18.234Z,168
2022-11-10T10:50:34.464Z,168
2022-11-10T10:51:50.728Z,168
2022-11-10T10:53:05.967Z,168
2022-11-10T10:54:22.220Z,168
2022-11-10T10:55:38.440Z,168
2022-11-10T10:56:54.686Z,174
2022-11-10T10:58:10.931Z,174
2022-11-10T10:59:27.172Z,163
2022-11-10T11:00:43.416Z,174
2022-11-10T11:01:59.647Z,174
2022-11-10T11:03:15.875Z,174
2022-11-10T11:04:32.124Z,168
2022-11-10T11:05:48.360Z,168
2022-11-10T11:07:04.608Z,168
2022-11-10T11:08:20.839Z,168
2022-11-10T11:09:36.106Z,168
2022-11-10T11:10:52.335Z,168
2022-11-10T11:12:08.590Z,174
2022-11-10T11:13:24.813Z,168
2022-11-10T11:14:41.064Z,180
2022-11-10T11:15:57.311Z,174
2022-11-10T11:17:13.534Z,174
2022-11-10T11:18:29.772Z,168
2022-11-10T11:19:46.026Z,174
2022-11-10T11:21:02.256Z,180
2022-11-10T11:22:18.492Z,168
2022-11-10T11:23:34.727Z,174
2022-11-10T11:24:50.964Z,180
2022-11-10T11:26:06.219Z,202
2022-11-10T11:27:22.459Z,208
2022-11-10T11:28:38.695Z,202
2022-11-10T11:29:54.953Z,213
2022-11-10T11:31:11.178Z,225
2022-11-10T11:32:27.429Z,230
2022-11-10T11:33:43.659Z,230
2022-11-10T11:34:59.906Z,219
2022-11-10T11:36:16.135Z,219
2022-11-10T11:37:32.390Z,225
2022-11-10T11:38:48.621Z,196
2022-11-10T11:40:04.852Z,202
2022-11-10T11:41:21.093Z,191
2022-11-10T11:42:36.361Z,196
2022-11-10T11:43:52.593Z,196
2022-11-10T11:45:08.836Z,196
2022-11-10T11:46:25.084Z,196
2022-11-10T11:47:41.304Z,202
2022-11-10T11:48:57.000Z,202
2022-11-10T11:50:13.795Z,202
2022-11-10T11:51:30.030Z,208
2022-11-10T11:52:46.255Z,213
2022-11-10T11:54:02.492Z,213
2022-11-10T11:55:18.741Z,202
2022-11-10T11:56:34.980Z,208
2022-11-10T11:57:51.223Z,191
2022-11-10T11:59:06.484Z,191
2022-11-10T12:00:22.730Z,185
2022-11-10T12:01:38.953Z,185
2022-11-10T12:02:55.191Z,168
2022-11-10T12:04:11.430Z,174
2022-11-10T12:05:27.665Z,174
2022-11-10T12:06:43.918Z,168
2022-11-10T12:08:00.156Z,168
2022-11-10T12:09:16.407Z,168
2022-11-10T12:10:32.618Z,174
2022-11-10T12:11:48.866Z,174
2022-11-10T12:13:05.123Z,180
2022-11-10T12:14:21.346Z,174
2022-11-10T12:15:36.619Z,168
2022-11-10T12:16:52.832Z,168
2022-11-10T12:18:09.084Z,168
2022-11-10T12:19:25.323Z,174
2022-11-10T12:20:41.574Z,174
2022-11-10T12:21:57.797Z,191
2022-11-10T12:23:14.030Z,185
2022-11-10T12:24:30.280Z,174
2022-11-10T12:25:46.518Z,174
2022-11-10T12:27:02.753Z,163
2022-11-10T12:28:18.985Z,163
2022-11-10T12:29:35.230Z,163
2022-11-10T12:30:51.467Z,174
2022-11-10T12:32:06.736Z,168
2022-11-10T12:33:22.973Z,168
2022-11-10T12:34:39.203Z,163
2022-11-10T12:35:55.451Z,157
2022-11-10T12:37:11.677Z,157
2022-11-10T12:38:27.931Z,157
2022-11-10T12:39:44.167Z,163
2022-11-10T12:41:00.416Z,163
2022-11-10T12:42:16.653Z,168
2022-11-10T12:43:32.904Z,163
2022-11-10T12:44:49.126Z,163
2022-11-10T12:46:05.373Z,163
2022-11-10T12:47:21.604Z,151
2022-11-10T12:48:36.880Z,151
2022-11-10T12:49:53.102Z,146
2022-11-10T12:51:09.342Z,146
2022-11-10T12:52:25.583Z,151
2022-11-10T12:53:41.834Z,146
2022-11-10T12:54:58.059Z,146
2022-11-10T12:56:14.304Z,146
2022-11-10T12:57:30.536Z,135
2022-11-10T12:58:46.779Z,135
2022-11-10T13:00:03.010Z,140
2022-11-10T13:01:19.267Z,140
2022-11-10T13:02:35.494Z,146
2022-11-10T13:03:51.749Z,146
2022-11-10T13:05:06.990Z,151
2022-11-10T13:06:23.218Z,157
2022-11-10T13:07:39.468Z,157
2022-11-10T13:08:55.713Z,157
2022-11-10T13:10:11.941Z,146
2022-11-10T13:11:28.193Z,163
2022-11-10T13:12:44.429Z,146
2022-11-10T13:14:00.682Z,140
2022-11-10T13:15:16.906Z,140
2022-11-10T13:16:33.160Z,140
2022-11-10T13:17:49.372Z,151
2022-11-10T13:19:05.621Z,146
2022-11-10T13:20:21.860Z,151
2022-11-10T13:21:37.120Z,151
2022-11-10T13:22:53.345Z,157
2022-11-10T13:24:09.599Z,151
2022-11-10T13:25:25.836Z,151
2022-11-10T13:26:42.078Z,151
2022-11-10T13:27:58.322Z,140
2022-11-10T13:29:13.574Z,135
2022-11-10T13:30:29.803Z,140
2022-11-10T13:31:46.042Z,146
2022-11-10T13:33:02.285Z,146
2022-11-10T13:34:18.532Z,140
2022-11-10T13:35:34.772Z,135
2022-11-10T13:36:51.031Z,135
2022-11-10T13:38:07.267Z,135
2022-11-10T13:39:23.509Z,129
2022-11-10T13:40:39.736Z,118
2022-11-10T13:41:55.970Z,118
2022-11-10T13:43:12.206Z,118
2022-11-10T13:44:28.464Z,123
2022-11-10T13:45:43.697Z,123
2022-11-10T13:46:59.955Z,129
2022-11-10T13:48:16.187Z,135
2022-11-10T13:49:32.430Z,157
2022-11-10T13:50:48.676Z,163
2022-11-10T13:52:04.910Z,163
2022-11-10T13:53:21.135Z,157
2022-11-10T13:54:37.384Z,151
2022-11-10T13:55:53.608Z,140
2022-11-10T13:57:09.856Z,135
2022-11-10T13:58:26.105Z,140
2022-11-10T13:59:42.326Z,129
2022-11-10T14:00:58.575Z,129
2022-11-10T14:02:13.836Z,123
2022-11-10T14:03:30.060Z,123
2022-11-10T14:04:46.328Z,118
2022-11-10T14:06:02.543Z,118
2022-11-10T14:07:18.797Z,112
2022-11-10T14:08:35.029Z,106
2022-11-10T14:09:51.266Z,106
2022-11-10T14:11:07.515Z,106
2022-11-10T14:12:23.747Z,101
2022-11-10T14:13:39.987Z,101
2022-11-10T14:14:56.214Z,101
2022-11-10T14:16:12.461Z,101
2022-11-10T14:17:28.711Z,95
2022-11-10T14:18:43.955Z,95
2022-11-10T14:20:00.203Z,95
2022-11-10T14:21:16.438Z,95
2022-11-10T14:22:32.695Z,95
2022-11-10T14:23:48.911Z,90
2022-11-10T14:25:05.156Z,90
2022-11-10T14:26:21.402Z,90
2022-11-10T14:27:37.626Z,90
2022-11-10T14:28:53.866Z,84
2022-11-10T14:30:10.106Z,84
2022-11-10T14:31:26.344Z,84
2022-11-10T14:32:42.584Z,84
2022-11-10T14:33:58.826Z,78
2022-11-10T14:35:14.084Z,78
2022-11-10T14:36:30.330Z,78
2022-11-10T14:37:46.561Z,78
2022-11-10T14:39:02.792Z,73
2022-11-10T14:40:19.033Z,73
2022-11-10T14:41:35.273Z,73
2022-11-10T14:42:51.522Z,67
2022-11-10T14:44:07.766Z,67
2022-11-10T14:45:23.990Z,67
2022-11-10T14:46:40.230Z,67
2022-11-10T14:47:56.465Z,61
2022-11-10T14:49:12.718Z,61
2022-11-10T14:50:28.945Z,61
2022-11-10T14:51:44.200Z,61
2022-11-10T14:53:00.445Z,56
2022-11-10T14:54:16.688Z,56
2022-11-10T14:55:32.935Z,56
2022-11-10T14:56:49.168Z,50
2022-11-10T14:58:05.408Z,50
2022-11-10T14:59:21.646Z,50
2022-11-10T15:00:37.892Z,45
2022-11-10T15:01:54.131Z,45
2022-11-10T15:03:10.357Z,45
2022-11-10T15:04:26.607Z,39
2022-11-10T15:05:42.842Z,39
2022-11-10T15:06:59.072Z,39
2022-11-10T15:08:14.331Z,33
2022-11-10T15:09:30.585Z,33
2022-11-10T15:10:46.813Z,33
2022-11-10T15:12:03.045Z,28
2022-11-10T15:13:19.301Z,28
2022-11-10T15:14:35.529Z,28
2022-11-10T15:15:51.765Z,22
2022-11-10T15:17:08.003Z,22
2022-11-10T15:18:24.242Z,22
2022-11-10T15:19:40.488Z,22
2022-11-10T15:20:56.738Z,16
2022-11-10T15:22:12.973Z,16
2022-11-10T15:23:29.214Z,16
2022-11-10T15:24:44.462Z,11
2022-11-10T15:26:00.708Z,11
2022-11-10T15:27:16.935Z,11
2022-11-10T15:28:33.179Z,11
2022-11-10T15:29:49.421Z,5
2022-11-10T15:31:05.660Z,5
2022-11-10T15:32:21.895Z,5
2022-11-10T15:33:38.144Z,5
2022-11-10T15:34:54.370Z,5
2022-11-10T15:36:10.630Z,5
2022-11-10T15:37:26.861Z,0
2022-11-10T15:38:43.101Z,0
2022-11-10T15:39:59.341Z,0
2022-11-10T15:41:14.590Z,0
2022-11-10T15:42:30.825Z,0
2022-11-10T15:43:47.066Z,0
2022-11-10T15:45:03.314Z,0
2022-11-10T15:46:19.545Z,0
2022-11-10T15:47:35.787Z,0
2022-11-10T15:48:52.031Z,0
2022-11-10T15:50:08.260Z,0
2022-11-10T15:51:24.509Z,0
2022-11-10T15:52:40.747Z,0
2022-11-10T15:53:56.980Z,0
2022-11-10T15:55:13.230Z,0
2022-11-10T15:56:29.462Z,0
2022-11-10T15:57:44.729Z,0
2022-11-10T15:59:00.954Z,0
2022-11-10T16:00:17.211Z,0
2022-11-10T16:01:33.448Z,0
2022-11-10T16:02:49.683Z,0
2022-11-10T16:04:05.927Z,0
2022-11-10T16:05:22.156Z,0
2022-11-10T16:06:38.399Z,0
2022-11-10T16:07:54.628Z,0
2022-11-10T16:09:10.869Z,0
2022-11-10T16:10:27.162Z,0
2022-11-10T16:11:43.455Z,0
2022-11-10T16:12:59.761Z,0
2022-11-10T16:14:15.074Z,0
2022-11-10T16:15:31.363Z,0
2022-11-10T16:16:47.653Z,0
2022-11-10T16:18:03.956Z,0
2022-11-10T16:19:20.249Z,0
2022-11-10T16:20:36.535Z,0
2022-11-10T16:21:52.832Z,0
2022-11-10T16:23:09.128Z,0
2022-11-10T16:24:25.410Z,0
2022-11-10T16:25:41.700Z,0
2022-11-10T16:26:57.997Z,0
2022-11-10T16:28:14.306Z,0
2022-11-10T16:29:30.593Z,0
2022-11-10T16:30:45.904Z,0
2022-11-10T16:32:02.188Z,0
2022-11-10T16:33:18.483Z,0
2022-11-10T16:34:34.784Z,0
2022-11-10T16:35:51.070Z,0
2022-11-10T16:37:07.372Z,0
2022-11-10T16:38:23.663Z,0
2022-11-10T16:39:39.962Z,0
2022-11-10T16:40:56.244Z,0
2022-11-10T16:42:12.546Z,0
2022-11-10T16:43:28.841Z,0
2022-11-10T16:44:45.125Z,0
2022-11-10T16:46:01.419Z,0
2022-11-10T16:47:16.724Z,0
2022-11-10T16:48:33.032Z,0
2022-11-10T16:49:49.322Z,0
2022-11-10T16:51:05.615Z,0
2022-11-10T16:52:21.900Z,0
2022-11-10T16:53:38.207Z,0
2022-11-10T16:54:54.507Z,0
2022-11-10T16:56:10.794Z,0
2022-11-10T16:57:27.082Z,0
2022-11-10T16:58:43.372Z,0
2022-11-10T16:59:59.657Z,0
2022-11-10T17:01:15.952Z,0
2022-11-10T17:02:32.000Z,0
2022-11-10T17:03:47.567Z,0
2022-11-10T17:05:03.856Z,0
2022-11-10T17:06:20.149Z,0
2022-11-10T17:07:36.456Z,0
2022-11-10T17:08:52.736Z,0
2022-11-10T17:10:09.032Z,0
2022-11-10T17:11:25.318Z,0
2022-11-10T17:12:41.618Z,0
2022-11-10T17:13:57.906Z,0
2022-11-10T17:15:14.219Z,0
2022-11-10T17:16:30.491Z,0
2022-11-10T17:17:46.795Z,0
2022-11-10T17:19:03.090Z,0
2022-11-10T17:20:18.395Z,0
2022-11-10T17:21:34.691Z,0
2022-11-10T17:22:50.994Z,0
2022-11-10T17:24:07.268Z,0
2022-11-10T17:25:23.581Z,0
2022-11-10T17:26:39.870Z,0
2022-11-10T17:27:56.160Z,0
2022-11-10T17:29:12.455Z,0
2022-11-10T17:30:28.746Z,0
2022-11-10T17:31:45.037Z,0
2022-11-10T17:33:01.321Z,0
2022-11-10T17:34:17.616Z,0
2022-11-10T17:35:33.926Z,0
2022-11-10T17:36:50.212Z,0
2022-11-10T17:38:05.535Z,0
2022-11-10T17:39:21.809Z,0
2022-11-10T17:40:38.119Z,0
2022-11-10T17:41:54.403Z,0
2022-11-10T17:43:10.705Z,0
2022-11-10T17:44:26.022Z,0
2022-11-10T17:45:42.306Z,0
2022-11-10T17:46:58.592Z,0
2022-11-10T17:48:14.890Z,0
2022-11-10T17:49:31.195Z,0
2022-11-10T17:50:47.474Z,0
2022-11-10T17:52:03.781Z,0
2022-11-10T17:53:20.064Z,0
2022-11-10T17:54:36.370Z,0
2022-11-10T17:55:52.659Z,0
2022-11-10T17:57:08.938Z,0
2022-11-10T17:58:25.244Z,0
2022-11-10T17:59:41.535Z,0
2022-11-10T18:00:56.844Z,0
2022-11-10T18:02:13.135Z,0
2022-11-10T18:03:29.442Z,0
2022-11-10T18:04:45.730Z,0
2022-11-10T18:06:02.017Z,0
2022-11-10T18:07:18.320Z,0
2022-11-10T18:08:34.608Z,0
2022-11-10T18:09:50.898Z,0
2022-11-10T18:11:07.187Z,0
2022-11-10T18:12:23.499Z,0